createdAt,value
2024-02-28T00:01:52.142Z,8.53
2024-02-28T00:04:21.182Z,8.54
2024-02-28T00:06:49.093Z,8.55
2024-02-28T00:09:16.935Z,8.54
2024-02-28T00:11:47.999Z,8.56
2024-02-28T00:14:16.022Z,8.56
2024-02-28T00:16:45.264Z,8.57
2024-02-28T00:19:13.826Z,8.57
2024-02-28T00:21:42.175Z,8.58
2024-02-28T00:24:11.142Z,8.59
2024-02-28T00:26:42.356Z,8.60
2024-02-28T00:29:12.776Z,8.59
2024-02-28T00:31:40.335Z,8.59
2024-02-28T00:34:09.821Z,8.60
2024-02-28T00:36:48.130Z,8.60
2024-02-28T00:39:23.110Z,8.60
2024-02-28T00:41:50.852Z,8.60
2024-02-28T00:44:18.519Z,8.60
2024-02-28T00:46:46.266Z,8.61
2024-02-28T00:49:13.926Z,8.61
2024-02-28T00:51:41.680Z,8.61
2024-02-28T00:54:09.485Z,8.62
2024-02-28T00:56:37.072Z,8.61
2024-02-28T00:59:04.673Z,8.61
2024-02-28T01:01:32.306Z,8.61
2024-02-28T01:03:59.981Z,8.62
2024-02-28T01:06:27.658Z,8.62
2024-02-28T01:08:55.317Z,8.60
2024-02-28T01:11:23.071Z,8.60
2024-02-28T01:13:50.760Z,8.60
2024-02-28T01:16:18.436Z,8.60
2024-02-28T01:18:46.065Z,8.61
2024-02-28T01:21:13.835Z,8.61
2024-02-28T01:23:41.732Z,8.62
2024-02-28T01:26:09.404Z,8.62
2024-02-28T01:28:36.995Z,8.62
2024-02-28T01:31:04.681Z,8.63
2024-02-28T01:33:33.322Z,8.64
2024-02-28T01:36:00.991Z,8.65
2024-02-28T01:38:28.614Z,8.65
2024-02-28T01:40:56.212Z,8.65
2024-02-28T01:43:23.781Z,8.64
2024-02-28T01:45:52.087Z,8.65
2024-02-28T01:48:20.072Z,8.65
2024-02-28T01:50:48.566Z,8.65
2024-02-28T01:53:18.260Z,8.67
2024-02-28T01:55:46.917Z,8.67
2024-02-28T01:58:14.552Z,8.66
2024-02-28T02:00:42.925Z,8.66
2024-02-28T02:03:10.720Z,8.68
2024-02-28T02:05:38.557Z,8.69
2024-02-28T02:08:06.570Z,8.71
2024-02-28T02:10:34.182Z,8.73
2024-02-28T02:13:08.024Z,8.73
2024-02-28T02:15:35.926Z,8.74
2024-02-28T02:18:03.990Z,8.74
2024-02-28T02:20:36.705Z,8.75
2024-02-28T02:23:04.659Z,8.77
2024-02-28T02:25:32.563Z,8.78
2024-02-28T02:28:00.475Z,8.79
2024-02-28T02:30:28.109Z,8.81
2024-02-28T02:32:56.042Z,8.82
2024-02-28T02:35:23.656Z,8.83
2024-02-28T02:37:51.224Z,8.83
2024-02-28T02:40:18.780Z,8.85
2024-02-28T02:42:46.447Z,8.85
2024-02-28T02:45:14.239Z,8.86
2024-02-28T02:47:41.909Z,8.87
2024-02-28T02:50:09.606Z,8.88
2024-02-28T02:52:37.470Z,8.88
2024-02-28T02:55:05.536Z,8.88
2024-02-28T02:57:34.493Z,8.89
2024-02-28T03:00:02.288Z,8.89
2024-02-28T03:02:30.060Z,8.90
2024-02-28T03:04:57.676Z,8.90
2024-02-28T03:07:25.291Z,8.91
2024-02-28T03:09:52.961Z,8.90
2024-02-28T03:12:20.653Z,8.88
2024-02-28T03:14:49.397Z,8.87
2024-02-28T03:17:17.068Z,8.84
2024-02-28T03:19:44.691Z,8.84
2024-02-28T03:22:12.364Z,8.83
2024-02-28T03:24:40.014Z,8.83
2024-02-28T03:27:07.975Z,8.84
2024-02-28T03:29:35.688Z,8.84
2024-02-28T03:32:03.471Z,8.85
2024-02-28T03:34:31.162Z,8.86
2024-02-28T03:36:59.054Z,8.87
2024-02-28T03:39:26.760Z,8.86
2024-02-28T03:41:54.645Z,8.87
2024-02-28T03:44:22.708Z,8.86
2024-02-28T03:46:50.398Z,8.86
2024-02-28T03:49:18.072Z,8.85
2024-02-28T03:51:45.750Z,8.86
2024-02-28T03:54:13.452Z,8.87
2024-02-28T03:56:41.165Z,8.87
2024-02-28T03:59:08.781Z,8.87
2024-02-28T04:01:36.473Z,8.87
2024-02-28T04:04:04.492Z,8.87
2024-02-28T04:06:32.157Z,8.87
2024-02-28T04:08:59.869Z,8.88
2024-02-28T04:11:27.533Z,8.87
2024-02-28T04:13:55.194Z,8.87
2024-02-28T04:16:22.810Z,8.86
2024-02-28T04:18:50.457Z,8.87
2024-02-28T04:21:18.144Z,8.85
2024-02-28T04:23:45.865Z,8.84
2024-02-28T04:26:13.509Z,8.85
2024-02-28T04:28:42.946Z,8.85
2024-02-28T04:31:11.738Z,8.85
2024-02-28T04:33:39.556Z,8.85
2024-02-28T04:36:07.368Z,8.84
2024-02-28T04:38:34.947Z,8.82
2024-02-28T04:41:03.163Z,8.81
2024-02-28T04:43:30.810Z,8.80
2024-02-28T04:45:58.527Z,8.79
2024-02-28T04:48:26.266Z,8.76
2024-02-28T04:50:53.853Z,8.73
2024-02-28T04:53:21.553Z,8.72
2024-02-28T04:55:49.197Z,8.70
2024-02-28T04:58:16.783Z,8.69
2024-02-28T05:00:44.461Z,8.68
2024-02-28T05:03:12.077Z,8.67
2024-02-28T05:05:40.024Z,8.65
2024-02-28T05:08:07.696Z,8.64
2024-02-28T05:10:35.453Z,8.63
2024-02-28T05:13:05.000Z,8.62
2024-02-28T05:15:33.148Z,8.62
2024-02-28T05:18:01.125Z,8.60
2024-02-28T05:20:29.302Z,8.59
2024-02-28T05:22:56.921Z,8.57
2024-02-28T05:25:24.572Z,8.57
2024-02-28T05:27:52.250Z,8.55
2024-02-28T05:30:20.753Z,8.54
2024-02-28T05:32:48.496Z,8.53
2024-02-28T05:35:16.284Z,8.52
2024-02-28T05:37:47.756Z,8.51
2024-02-28T05:40:15.658Z,8.51
2024-02-28T05:42:44.175Z,8.49
2024-02-28T05:45:11.867Z,8.49
2024-02-28T05:47:39.569Z,8.49
2024-02-28T05:50:07.751Z,8.48
2024-02-28T05:52:35.378Z,8.49
2024-02-28T05:55:03.820Z,8.47
2024-02-28T05:57:31.565Z,8.48
2024-02-28T05:59:59.889Z,8.47
2024-02-28T06:02:27.739Z,8.45
2024-02-28T06:04:55.426Z,8.45
2024-02-28T06:07:24.823Z,8.46
2024-02-28T06:09:52.545Z,8.46
2024-02-28T06:12:20.461Z,8.46
2024-02-28T06:14:48.419Z,8.47
2024-02-28T06:17:16.145Z,8.47
2024-02-28T06:19:43.904Z,8.48
2024-02-28T06:22:11.496Z,8.50
2024-02-28T06:24:39.189Z,8.51
2024-02-28T06:27:06.982Z,8.52
2024-02-28T06:29:36.654Z,8.53
2024-02-28T06:32:05.060Z,8.55
2024-02-28T06:34:32.848Z,8.57
2024-02-28T06:37:00.683Z,8.59
2024-02-28T06:39:28.461Z,8.61
2024-02-28T06:41:56.352Z,8.64
2024-02-28T06:44:24.187Z,8.66
2024-02-28T06:46:51.874Z,8.70
2024-02-28T06:49:19.489Z,8.73
2024-02-28T06:51:47.280Z,8.76
2024-02-28T06:54:15.123Z,8.80
2024-02-28T06:56:42.875Z,8.83
2024-02-28T06:59:10.563Z,8.87
2024-02-28T07:01:38.450Z,8.92
2024-02-28T07:04:06.300Z,8.95
2024-02-28T07:06:34.103Z,8.99
2024-02-28T07:09:02.044Z,9.04
2024-02-28T07:11:29.746Z,9.11
2024-02-28T07:13:58.792Z,9.16
2024-02-28T07:16:27.186Z,9.21
2024-02-28T07:18:54.959Z,9.26
2024-02-28T07:21:22.713Z,9.32
2024-02-28T07:23:50.531Z,9.37
2024-02-28T07:26:26.498Z,9.41
2024-02-28T07:28:55.235Z,9.47
2024-02-28T07:31:23.365Z,9.52
2024-02-28T07:33:51.281Z,9.57
2024-02-28T07:36:18.986Z,9.61
2024-02-28T07:38:46.865Z,9.67
2024-02-28T07:41:14.633Z,9.72
2024-02-28T07:43:44.032Z,9.77
2024-02-28T07:46:12.442Z,9.82
2024-02-28T07:48:40.652Z,9.90
2024-02-28T07:51:09.368Z,9.98
2024-02-28T07:53:37.105Z,10.04
2024-02-28T07:56:05.027Z,10.10
2024-02-28T07:58:32.984Z,10.14
2024-02-28T08:01:00.760Z,10.16
2024-02-28T08:03:28.613Z,10.21
2024-02-28T08:05:56.360Z,10.26
2024-02-28T08:08:24.865Z,10.30
2024-02-28T08:10:54.141Z,10.35
2024-02-28T08:13:21.910Z,10.40
2024-02-28T08:15:49.660Z,10.43
2024-02-28T08:18:17.457Z,10.45
2024-02-28T08:20:45.125Z,10.49
2024-02-28T08:23:12.721Z,10.53
2024-02-28T08:25:40.495Z,10.56
2024-02-28T08:28:08.150Z,10.60
2024-02-28T08:30:35.842Z,10.63
2024-02-28T08:33:03.652Z,10.67
2024-02-28T08:35:31.356Z,10.69
2024-02-28T08:37:59.050Z,10.73
2024-02-28T08:40:26.740Z,10.76
2024-02-28T08:42:55.571Z,10.82
2024-02-28T08:45:24.298Z,10.89
2024-02-28T08:47:52.449Z,10.93
2024-02-28T08:50:20.184Z,10.95
2024-02-28T08:52:47.859Z,11.02
2024-02-28T08:55:19.656Z,11.08
2024-02-28T08:57:47.452Z,11.15
2024-02-28T09:00:16.515Z,11.22
2024-02-28T09:02:44.547Z,11.27
2024-02-28T09:05:12.548Z,11.30
2024-02-28T09:07:40.185Z,11.32
2024-02-28T09:10:08.379Z,11.36
2024-02-28T09:12:36.076Z,11.38
2024-02-28T09:15:04.060Z,11.40
2024-02-28T09:17:32.431Z,11.42
2024-02-28T09:20:02.266Z,11.44
2024-02-28T09:22:30.127Z,11.44
2024-02-28T09:24:57.990Z,11.44
2024-02-28T09:27:27.009Z,11.44
2024-02-28T09:29:54.711Z,11.47
2024-02-28T09:32:22.401Z,11.51
2024-02-28T09:34:50.239Z,11.55
2024-02-28T09:37:22.261Z,11.58
2024-02-28T09:39:49.900Z,11.60
2024-02-28T09:42:18.414Z,11.62
2024-02-28T09:44:46.759Z,11.62
2024-02-28T09:47:14.625Z,11.62
2024-02-28T09:49:44.418Z,11.63
2024-02-28T09:52:12.223Z,11.65
2024-02-28T09:54:40.076Z,11.67
2024-02-28T09:57:07.710Z,11.69
2024-02-28T09:59:43.308Z,11.71
2024-02-28T10:02:22.613Z,11.73
2024-02-28T10:04:50.600Z,11.70
2024-02-28T10:07:18.523Z,11.68
2024-02-28T10:09:46.206Z,11.66
2024-02-28T10:12:13.852Z,11.66
2024-02-28T10:14:41.677Z,11.65
2024-02-28T10:17:09.452Z,11.65
2024-02-28T10:19:37.195Z,11.64
2024-02-28T10:22:05.134Z,11.65
2024-02-28T10:24:34.776Z,11.65
2024-02-28T10:27:02.871Z,11.64
2024-02-28T10:29:30.757Z,11.64
2024-02-28T10:31:58.659Z,11.66
2024-02-28T10:34:26.377Z,11.66
2024-02-28T10:36:54.211Z,11.67
2024-02-28T10:39:23.311Z,11.67
2024-02-28T10:41:53.189Z,11.68
2024-02-28T10:44:21.873Z,11.69
2024-02-28T10:46:51.122Z,11.68
2024-02-28T10:49:18.984Z,11.68
2024-02-28T10:51:49.562Z,11.68
2024-02-28T10:54:17.992Z,11.68
2024-02-28T10:56:46.940Z,11.67
2024-02-28T10:59:14.816Z,11.67
2024-02-28T11:01:45.090Z,11.66
2024-02-28T11:04:14.316Z,11.66
2024-02-28T11:06:53.005Z,11.63
2024-02-28T11:09:26.992Z,11.58
2024-02-28T11:11:56.687Z,11.53
2024-02-28T11:14:27.361Z,11.49
2024-02-28T11:17:06.183Z,11.46
2024-02-28T11:19:35.763Z,11.45
2024-02-28T11:22:07.043Z,11.44
2024-02-28T11:24:37.430Z,11.46
2024-02-28T11:27:07.018Z,11.44
2024-02-28T11:29:34.799Z,11.43
2024-02-28T11:32:02.633Z,11.42
2024-02-28T11:34:30.326Z,11.42
2024-02-28T11:37:00.208Z,11.43
2024-02-28T11:39:28.446Z,11.43
2024-02-28T11:41:56.662Z,11.41
2024-02-28T11:44:24.413Z,11.39
2024-02-28T11:46:52.131Z,11.31
2024-02-28T11:49:20.001Z,11.25
2024-02-28T11:51:47.904Z,11.22
2024-02-28T11:54:16.393Z,11.18
2024-02-28T11:56:44.244Z,11.13
2024-02-28T11:59:12.895Z,11.10
2024-02-28T12:01:45.126Z,11.07
2024-02-28T12:04:14.072Z,11.04
2024-02-28T12:06:42.034Z,11.02
2024-02-28T12:09:14.593Z,11.01
2024-02-28T12:11:47.462Z,11.00
2024-02-28T12:14:15.237Z,10.98
2024-02-28T12:16:43.490Z,10.94
2024-02-28T12:19:12.558Z,10.94
2024-02-28T12:21:41.088Z,10.94
2024-02-28T12:24:12.793Z,10.94
2024-02-28T12:26:41.253Z,10.93
2024-02-28T12:29:11.864Z,10.93
2024-02-28T12:31:40.342Z,10.92
2024-02-28T12:34:08.144Z,10.90
2024-02-28T12:36:36.014Z,10.87
2024-02-28T12:39:03.744Z,10.82
2024-02-28T12:41:31.504Z,10.82
2024-02-28T12:43:59.058Z,10.83
2024-02-28T12:46:26.662Z,10.83
2024-02-28T12:48:54.439Z,10.78
2024-02-28T12:51:36.995Z,10.73
2024-02-28T12:54:04.775Z,10.69
2024-02-28T12:56:32.528Z,10.66
2024-02-28T12:59:00.398Z,10.63
2024-02-28T13:01:29.580Z,10.58
2024-02-28T13:03:57.972Z,10.55
2024-02-28T13:06:25.955Z,10.52
2024-02-28T13:08:53.834Z,10.46
2024-02-28T13:11:23.318Z,10.43
2024-02-28T13:13:52.568Z,10.44
2024-02-28T13:16:21.259Z,10.42
2024-02-28T13:18:49.010Z,10.38
2024-02-28T13:21:16.832Z,10.35
2024-02-28T13:23:44.451Z,10.28
2024-02-28T13:26:18.725Z,10.23
2024-02-28T13:28:49.188Z,10.21
2024-02-28T13:31:18.312Z,10.20
2024-02-28T13:33:45.986Z,10.17
2024-02-28T13:36:14.023Z,10.16
2024-02-28T13:38:41.847Z,10.15
2024-02-28T13:41:09.510Z,10.10
2024-02-28T13:43:37.140Z,10.07
2024-02-28T13:46:04.886Z,10.03
2024-02-28T13:48:34.543Z,9.96
2024-02-28T13:51:03.337Z,9.90
2024-02-28T13:53:31.117Z,9.89
2024-02-28T13:55:58.729Z,9.89
2024-02-28T13:58:32.933Z,9.86
2024-02-28T14:01:07.983Z,9.84
2024-02-28T14:03:36.136Z,9.84
2024-02-28T14:06:04.190Z,9.81
2024-02-28T14:08:35.716Z,9.82
2024-02-28T14:11:04.035Z,9.82
2024-02-28T14:13:32.884Z,9.84
2024-02-28T14:16:00.657Z,9.84
2024-02-28T14:18:28.456Z,9.85
2024-02-28T14:20:56.128Z,9.84
2024-02-28T14:23:23.850Z,9.83
2024-02-28T14:25:51.429Z,9.83
2024-02-28T14:28:20.376Z,9.83
2024-02-28T14:30:50.450Z,9.81
2024-02-28T14:33:18.541Z,9.81
2024-02-28T14:35:46.212Z,9.80
2024-02-28T14:38:13.916Z,9.78
2024-02-28T14:40:42.448Z,9.76
2024-02-28T14:43:10.483Z,9.76
2024-02-28T14:45:40.939Z,9.76
2024-02-28T14:48:09.217Z,9.75
2024-02-28T14:50:36.971Z,9.73
2024-02-28T14:53:04.894Z,9.71
2024-02-28T14:55:32.578Z,9.69
2024-02-28T14:58:01.522Z,9.68
2024-02-28T15:00:29.688Z,9.67
2024-02-28T15:02:57.502Z,9.65
2024-02-28T15:05:25.940Z,9.63
2024-02-28T15:07:55.912Z,9.62
2024-02-28T15:10:27.592Z,9.59
2024-02-28T15:12:55.568Z,9.56
2024-02-28T15:15:23.936Z,9.53
2024-02-28T15:17:51.648Z,9.51
2024-02-28T15:20:19.378Z,9.49
2024-02-28T15:22:47.249Z,9.47
2024-02-28T15:25:15.222Z,9.45
2024-02-28T15:27:43.026Z,9.42
2024-02-28T15:30:12.450Z,9.40
2024-02-28T15:32:41.298Z,9.41
2024-02-28T15:35:09.449Z,9.42
2024-02-28T15:37:37.240Z,9.40
2024-02-28T15:40:08.550Z,9.41
2024-02-28T15:42:36.849Z,9.39
2024-02-28T15:45:04.939Z,9.38
2024-02-28T15:47:34.192Z,9.38
2024-02-28T15:50:04.524Z,9.36
2024-02-28T15:52:32.603Z,9.34
2024-02-28T15:55:00.372Z,9.33
2024-02-28T15:57:28.245Z,9.33
2024-02-28T15:59:56.597Z,9.32
2024-02-28T16:02:24.359Z,9.31
2024-02-28T16:04:52.032Z,9.31
2024-02-28T16:07:20.242Z,9.30
2024-02-28T16:09:48.166Z,9.29
2024-02-28T16:12:15.878Z,9.25
2024-02-28T16:14:43.463Z,9.23
2024-02-28T16:17:17.190Z,9.21
2024-02-28T16:19:47.402Z,9.21
2024-02-28T16:22:15.444Z,9.21
2024-02-28T16:24:43.183Z,9.21
2024-02-28T16:27:11.030Z,9.22
2024-02-28T16:29:38.707Z,9.21
2024-02-28T16:32:06.605Z,9.19
2024-02-28T16:34:36.894Z,9.15
2024-02-28T16:37:04.843Z,9.13
2024-02-28T16:39:35.700Z,9.10
2024-02-28T16:42:04.810Z,9.08
2024-02-28T16:44:32.877Z,9.04
2024-02-28T16:47:01.047Z,9.02
2024-02-28T16:49:28.726Z,9.02
2024-02-28T16:51:56.527Z,9.01
2024-02-28T16:54:24.237Z,8.99
2024-02-28T16:56:52.278Z,8.97
2024-02-28T16:59:20.121Z,8.96
2024-02-28T17:01:49.766Z,8.95
2024-02-28T17:04:17.602Z,8.92
2024-02-28T17:06:45.460Z,8.91
2024-02-28T17:09:13.946Z,8.90
2024-02-28T17:11:41.735Z,8.90
2024-02-28T17:14:09.468Z,8.92
2024-02-28T17:16:40.492Z,8.92
2024-02-28T17:19:08.220Z,8.93
2024-02-28T17:21:36.742Z,8.92
2024-02-28T17:24:05.764Z,8.89
2024-02-28T17:26:33.621Z,8.87
2024-02-28T17:29:01.400Z,8.85
2024-02-28T17:31:29.030Z,8.84
2024-02-28T17:33:56.731Z,8.84
2024-02-28T17:36:24.590Z,8.83
2024-02-28T17:38:52.386Z,8.81
2024-02-28T17:41:20.128Z,8.79
2024-02-28T17:43:47.846Z,8.80
2024-02-28T17:46:15.693Z,8.78
2024-02-28T17:48:44.586Z,8.75
2024-02-28T17:51:12.404Z,8.74
2024-02-28T17:53:40.146Z,8.71
2024-02-28T17:56:08.062Z,8.70
2024-02-28T17:58:35.670Z,8.69
2024-02-28T18:01:06.642Z,8.67
2024-02-28T18:03:34.752Z,8.66
2024-02-28T18:06:02.479Z,8.66
2024-02-28T18:08:32.706Z,8.66
2024-02-28T18:11:00.695Z,8.67
2024-02-28T18:13:28.852Z,8.68
2024-02-28T18:15:56.539Z,8.67
2024-02-28T18:18:24.635Z,8.68
2024-02-28T18:20:52.482Z,8.66
2024-02-28T18:23:27.778Z,8.66
2024-02-28T18:26:01.783Z,8.67
2024-02-28T18:28:29.469Z,8.66
2024-02-28T18:30:57.216Z,8.65
2024-02-28T18:33:24.898Z,8.64
2024-02-28T18:35:52.571Z,8.64
2024-02-28T18:38:20.475Z,8.61
2024-02-28T18:40:48.306Z,8.58
2024-02-28T18:43:18.897Z,8.56
2024-02-28T18:45:46.750Z,8.53
2024-02-28T18:48:15.376Z,8.50
2024-02-28T18:50:43.085Z,8.48
2024-02-28T18:53:10.832Z,8.46
2024-02-28T18:55:38.470Z,8.43
2024-02-28T18:58:06.368Z,8.40
2024-02-28T19:00:34.438Z,8.37
2024-02-28T19:03:03.403Z,8.33
2024-02-28T19:05:31.172Z,8.30
2024-02-28T19:07:59.026Z,8.27
2024-02-28T19:10:26.711Z,8.24
2024-02-28T19:12:54.477Z,8.23
2024-02-28T19:15:22.384Z,8.19
2024-02-28T19:17:50.185Z,8.17
2024-02-28T19:20:18.879Z,8.15
2024-02-28T19:22:47.150Z,8.15
2024-02-28T19:25:15.214Z,8.14
2024-02-28T19:27:43.274Z,8.14
2024-02-28T19:30:11.399Z,8.14
2024-02-28T19:32:44.622Z,8.11
2024-02-28T19:35:13.207Z,8.10
2024-02-28T19:37:41.996Z,8.09
2024-02-28T19:40:13.483Z,8.08
2024-02-28T19:42:45.085Z,8.07
2024-02-28T19:45:34.833Z,8.06
2024-02-28T19:48:18.062Z,8.06
2024-02-28T19:50:45.906Z,8.05
2024-02-28T19:53:14.197Z,8.04
2024-02-28T19:55:41.890Z,8.03
2024-02-28T19:58:10.032Z,8.02
2024-02-28T20:00:40.862Z,8.00
2024-02-28T20:03:09.049Z,7.97
2024-02-28T20:05:36.911Z,7.95
2024-02-28T20:08:04.818Z,7.93
2024-02-28T20:10:35.928Z,7.89
2024-02-28T20:13:04.521Z,7.86
2024-02-28T20:15:32.654Z,7.84
2024-02-28T20:18:00.490Z,7.82
2024-02-28T20:20:31.188Z,7.81
2024-02-28T20:22:59.086Z,7.80
2024-02-28T20:25:26.810Z,7.78
2024-02-28T20:27:54.637Z,7.76
2024-02-28T20:30:22.285Z,7.74
2024-02-28T20:32:50.142Z,7.73
2024-02-28T20:35:17.789Z,7.73
2024-02-28T20:37:45.867Z,7.73
2024-02-28T20:40:13.956Z,7.72
2024-02-28T20:42:44.453Z,7.70
2024-02-28T20:45:12.177Z,7.67
2024-02-28T20:47:39.986Z,7.67
2024-02-28T20:50:09.201Z,7.68
2024-02-28T20:52:36.929Z,7.67
2024-02-28T20:55:05.189Z,7.66
2024-02-28T20:57:35.468Z,7.66
2024-02-28T21:00:04.240Z,7.66
2024-02-28T21:02:32.046Z,7.66
2024-02-28T21:05:00.585Z,7.65
2024-02-28T21:07:41.090Z,7.65
2024-02-28T21:10:15.688Z,7.61
2024-02-28T21:12:43.917Z,7.57
2024-02-28T21:15:11.710Z,7.56
2024-02-28T21:17:39.865Z,7.54
2024-02-28T21:20:07.946Z,7.51
2024-02-28T21:22:37.538Z,7.49
2024-02-28T21:25:05.496Z,7.45
2024-02-28T21:27:33.538Z,7.44
2024-02-28T21:30:01.475Z,7.43
2024-02-28T21:32:29.788Z,7.42
2024-02-28T21:34:57.599Z,7.36
2024-02-28T21:37:26.449Z,7.40
2024-02-28T21:39:54.128Z,7.38
2024-02-28T21:42:21.967Z,7.37
2024-02-28T21:44:49.549Z,7.38
2024-02-28T21:47:17.222Z,7.38
2024-02-28T21:49:44.911Z,7.36
2024-02-28T21:52:12.816Z,7.35
2024-02-28T21:54:42.224Z,7.31
2024-02-28T21:57:11.962Z,7.30
2024-02-28T21:59:39.892Z,7.28
2024-02-28T22:02:08.188Z,7.27
2024-02-28T22:04:35.879Z,7.25
2024-02-28T22:07:03.986Z,7.24
2024-02-28T22:09:31.945Z,7.23
2024-02-28T22:11:59.644Z,7.21
2024-02-28T22:14:27.349Z,7.19
2024-02-28T22:16:55.218Z,7.17
2024-02-28T22:19:22.908Z,7.16
2024-02-28T22:21:50.560Z,7.15
2024-02-28T22:24:18.169Z,7.14
2024-02-28T22:26:46.282Z,7.15
2024-02-28T22:29:13.924Z,7.15
2024-02-28T22:31:41.498Z,7.14
2024-02-28T22:34:09.222Z,7.12
2024-02-28T22:36:36.906Z,7.11
2024-02-28T22:39:05.149Z,7.11
2024-02-28T22:41:32.898Z,7.10
2024-02-28T22:44:00.560Z,7.11
2024-02-28T22:46:28.189Z,7.11
2024-02-28T22:48:56.754Z,7.10
2024-02-28T22:51:24.618Z,7.09
2024-02-28T22:53:52.338Z,7.08
2024-02-28T22:56:20.654Z,7.07
2024-02-28T22:58:48.409Z,7.08
2024-02-28T23:01:16.171Z,7.08
2024-02-28T23:03:44.582Z,7.08
2024-02-28T23:06:12.247Z,7.09
2024-02-28T23:08:39.884Z,7.10
2024-02-28T23:11:08.406Z,7.10
2024-02-28T23:13:36.698Z,7.10
2024-02-28T23:16:04.973Z,7.11
2024-02-28T23:18:32.661Z,7.08
2024-02-28T23:21:00.774Z,7.10
2024-02-28T23:23:28.671Z,7.09
2024-02-28T23:25:56.366Z,7.09
2024-02-28T23:28:23.995Z,7.07
2024-02-28T23:30:51.896Z,7.07
2024-02-28T23:33:19.574Z,7.05
2024-02-28T23:35:47.249Z,7.05
2024-02-28T23:38:14.947Z,7.03
2024-02-28T23:40:42.578Z,7.03
2024-02-28T23:43:10.295Z,7.02
2024-02-28T23:45:38.087Z,7.01
2024-02-28T23:48:06.251Z,7.00
2024-02-28T23:50:34.482Z,6.97
2024-02-28T23:53:02.228Z,6.95
2024-02-28T23:55:29.816Z,6.93
2024-02-28T23:57:57.485Z,6.92
